createdAt,value
2023-02-17T00:04:55.204Z,65.20
2023-02-17T00:09:57.041Z,76.30
2023-02-17T00:14:58.557Z,53.90
2023-02-17T00:20:00.271Z,52.70
2023-02-17T00:25:01.795Z,60.30
2023-02-17T00:30:04.041Z,46.40
2023-02-17T00:35:06.337Z,81.00
2023-02-17T00:40:08.654Z,56.20
2023-02-17T00:45:10.221Z,61.80
2023-02-17T00:50:11.822Z,63.70
2023-02-17T00:55:13.316Z,65.90
2023-02-17T01:00:15.931Z,72.40
2023-02-17T01:05:17.509Z,65.90
2023-02-17T01:10:19.092Z,58.70
2023-02-17T01:15:20.602Z,61.50
2023-02-17T01:20:22.129Z,64.90
2023-02-17T01:25:24.124Z,70.00
2023-02-17T01:30:25.898Z,59.10
2023-02-17T01:35:27.593Z,58.70
2023-02-17T01:40:30.198Z,44.70
2023-02-17T01:45:35.593Z,63.90
2023-02-17T01:50:45.913Z,67.30
2023-02-17T01:55:48.300Z,60.00
2023-02-17T02:00:53.314Z,61.10
2023-02-17T02:05:55.854Z,66.60
2023-02-17T02:10:57.365Z,52.90
2023-02-17T02:16:13.493Z,58.30
2023-02-17T02:21:54.092Z,60.80
2023-02-17T02:27:27.093Z,52.30
2023-02-17T02:32:46.882Z,60.80
2023-02-17T02:38:06.643Z,44.50
2023-02-17T02:43:09.431Z,43.60
2023-02-17T02:48:11.332Z,63.10
2023-02-17T02:53:35.992Z,37.60
2023-02-17T02:59:01.225Z,57.80
2023-02-17T03:04:14.248Z,54.90
2023-02-17T03:09:28.992Z,45.40
2023-02-17T03:14:38.432Z,59.30
2023-02-17T03:19:39.929Z,52.10
2023-02-17T03:24:41.496Z,62.50
2023-02-17T03:29:43.193Z,51.30
2023-02-17T03:34:44.714Z,41.10
2023-02-17T03:39:46.535Z,65.80
2023-02-17T03:44:48.123Z,58.00
2023-02-17T03:49:51.286Z,52.10
2023-02-17T03:54:53.283Z,51.30
2023-02-17T03:59:54.795Z,46.10
2023-02-17T04:04:56.338Z,56.80
2023-02-17T04:09:57.886Z,58.20
2023-02-17T04:14:59.385Z,52.30
2023-02-17T04:20:00.894Z,53.00
2023-02-17T04:25:02.432Z,62.70
2023-02-17T04:30:05.109Z,55.60
2023-02-17T04:35:07.460Z,56.80
2023-02-17T04:40:10.553Z,51.90
2023-02-17T04:45:13.151Z,47.40
2023-02-17T04:50:15.032Z,59.80
2023-02-17T04:55:16.601Z,55.10
2023-02-17T05:00:18.924Z,65.90
2023-02-17T05:05:21.190Z,44.30
2023-02-17T05:10:24.073Z,50.20
2023-02-17T05:15:25.700Z,51.80
2023-02-17T05:20:27.266Z,49.60
2023-02-17T05:25:29.414Z,51.90
2023-02-17T05:30:31.081Z,63.60
2023-02-17T05:35:35.199Z,44.60
2023-02-17T05:45:38.606Z,52.70
2023-02-17T05:50:40.171Z,52.90
2023-02-17T05:55:41.705Z,50.00
2023-02-17T06:00:43.334Z,48.80
2023-02-17T06:05:45.869Z,53.10
2023-02-17T06:10:47.357Z,58.50
2023-02-17T06:15:48.950Z,53.80
2023-02-17T06:20:50.617Z,40.90
2023-02-17T06:25:53.497Z,62.10
2023-02-17T06:30:55.105Z,63.90
2023-02-17T06:35:56.741Z,48.10
2023-02-17T06:40:58.232Z,53.60
2023-02-17T06:45:59.807Z,28.80
2023-02-17T06:51:01.308Z,59.70
2023-02-17T06:56:02.841Z,51.90
2023-02-17T07:01:04.691Z,56.20
2023-02-17T07:06:06.472Z,48.40
2023-02-17T07:11:09.939Z,40.30
2023-02-17T07:16:13.198Z,59.70
2023-02-17T07:21:14.918Z,57.80
2023-02-17T07:26:16.493Z,56.30
2023-02-17T07:31:18.278Z,47.60
2023-02-17T07:36:20.236Z,44.60
2023-02-17T07:41:32.078Z,50.00
2023-02-17T07:46:33.742Z,41.90
2023-02-17T07:51:35.417Z,47.80
2023-02-17T07:56:36.880Z,44.00
2023-02-17T08:01:39.157Z,45.30
2023-02-17T08:06:40.822Z,28.00
2023-02-17T08:12:01.593Z,46.30
2023-02-17T08:17:03.112Z,51.10
2023-02-17T08:22:04.785Z,50.00
2023-02-17T08:27:06.380Z,46.60
2023-02-17T08:32:09.058Z,53.90
2023-02-17T08:37:11.567Z,47.50
2023-02-17T08:42:13.354Z,42.20
2023-02-17T08:47:15.267Z,47.10
2023-02-17T08:52:16.854Z,44.70
2023-02-17T08:57:19.145Z,39.50
2023-02-17T09:02:20.895Z,40.50
2023-02-17T09:07:23.038Z,38.80
2023-02-17T09:12:24.655Z,43.60
2023-02-17T09:17:26.276Z,42.60
2023-02-17T09:22:32.017Z,40.80
2023-02-17T09:27:34.112Z,45.40
2023-02-17T09:32:35.635Z,43.20
2023-02-17T09:37:37.248Z,33.10
2023-02-17T09:42:40.967Z,41.40
2023-02-17T09:53:01.351Z,37.90
2023-02-17T09:58:28.777Z,43.90
2023-02-17T10:09:03.538Z,34.60
2023-02-17T10:14:37.428Z,39.80
2023-02-17T10:19:47.518Z,44.50
2023-02-17T10:24:49.358Z,39.30
2023-02-17T10:30:06.918Z,39.60
2023-02-17T10:35:18.177Z,42.50
2023-02-17T10:40:25.966Z,34.10
2023-02-17T10:45:35.214Z,43.70
2023-02-17T10:50:38.306Z,40.20
2023-02-17T10:55:53.287Z,41.60
2023-02-17T11:00:56.930Z,45.10
2023-02-17T11:11:07.808Z,52.20
2023-02-17T11:16:27.232Z,39.60
2023-02-17T11:21:30.351Z,48.00
2023-02-17T11:26:36.552Z,49.40
2023-02-17T11:31:38.401Z,49.60
2023-02-17T11:36:40.566Z,48.70
2023-02-17T11:41:42.154Z,52.00
2023-02-17T11:46:55.713Z,47.20
2023-02-17T11:52:03.007Z,47.90
2023-02-17T11:57:26.336Z,48.50
2023-02-17T12:02:46.770Z,46.50
2023-02-17T12:08:19.235Z,48.40
2023-02-17T12:13:56.478Z,41.10
2023-02-17T12:19:32.037Z,39.50
2023-02-17T12:24:55.377Z,36.60
2023-02-17T12:30:19.057Z,36.80
2023-02-17T12:35:27.158Z,32.40
2023-02-17T12:40:32.971Z,33.50
2023-02-17T12:45:40.384Z,27.70
2023-02-17T12:51:09.657Z,35.70
2023-02-17T12:56:31.341Z,32.30
2023-02-17T13:01:33.022Z,37.10
2023-02-17T13:06:41.426Z,30.70
2023-02-17T13:11:45.718Z,28.70
2023-02-17T13:16:47.707Z,30.50
2023-02-17T13:21:54.940Z,36.60
2023-02-17T13:26:56.698Z,33.20
2023-02-17T13:32:02.407Z,27.50
2023-02-17T13:37:32.020Z,30.50
2023-02-17T13:42:40.268Z,34.10
2023-02-17T13:47:42.877Z,39.70
2023-02-17T13:52:44.417Z,31.40
2023-02-17T13:57:51.238Z,32.20
2023-02-17T14:02:59.401Z,31.40
2023-02-17T14:08:13.381Z,30.40
2023-02-17T14:13:15.488Z,41.00
2023-02-17T14:18:29.701Z,40.00
2023-02-17T14:23:52.298Z,32.80
2023-02-17T14:29:02.825Z,29.10
2023-02-17T14:34:04.622Z,30.30
2023-02-17T14:39:09.293Z,32.10
2023-02-17T14:44:10.825Z,29.90
2023-02-17T14:49:12.317Z,26.90
2023-02-17T14:54:18.174Z,30.70
2023-02-17T14:59:19.710Z,34.20
2023-02-17T15:04:21.318Z,31.20
2023-02-17T15:09:30.819Z,26.10
2023-02-17T15:14:32.433Z,34.20
2023-02-17T15:19:34.165Z,34.40
2023-02-17T15:24:36.302Z,27.30
2023-02-17T15:29:37.818Z,32.40
2023-02-17T15:34:39.524Z,32.10
2023-02-17T15:39:41.098Z,35.20
2023-02-17T15:44:50.410Z,30.70
2023-02-17T15:49:51.902Z,33.00
2023-02-17T15:55:00.712Z,32.70
2023-02-17T16:00:02.524Z,30.00
2023-02-17T16:05:04.170Z,37.70
2023-02-17T16:10:07.224Z,41.40
2023-02-17T16:15:15.399Z,36.90
2023-02-17T16:20:21.085Z,24.70
2023-02-17T16:25:23.204Z,42.00
2023-02-17T16:30:30.527Z,50.90
2023-02-17T16:35:33.222Z,19.90
2023-02-17T16:40:37.125Z,24.70
2023-02-17T16:45:56.256Z,29.20
2023-02-17T16:50:57.949Z,35.50
2023-02-17T16:55:59.542Z,31.50
2023-02-17T17:01:01.034Z,24.00
2023-02-17T17:06:15.443Z,23.60
2023-02-17T17:11:19.875Z,37.90
2023-02-17T17:16:26.196Z,37.60
2023-02-17T17:21:28.572Z,42.20
2023-02-17T17:26:36.518Z,34.90
2023-02-17T17:31:39.438Z,26.20
2023-02-17T17:36:46.389Z,32.60
2023-02-17T17:41:48.296Z,34.00
2023-02-17T17:46:50.030Z,36.20
2023-02-17T17:51:51.532Z,29.90
2023-02-17T17:56:53.489Z,27.50
2023-02-17T18:01:54.996Z,31.40
2023-02-17T18:06:57.797Z,25.60
2023-02-17T18:12:04.442Z,17.10
2023-02-17T18:17:08.281Z,20.90
2023-02-17T18:22:09.789Z,25.70
2023-02-17T18:27:11.832Z,23.30
2023-02-17T18:32:13.369Z,20.60
2023-02-17T18:37:15.990Z,18.30
2023-02-17T18:42:17.560Z,22.10
2023-02-17T18:47:20.191Z,18.00
2023-02-17T18:52:21.855Z,26.70
2023-02-17T18:57:23.376Z,18.30
2023-02-17T19:02:25.984Z,17.50
2023-02-17T19:07:27.897Z,19.40
2023-02-17T19:12:30.650Z,18.90
2023-02-17T19:17:32.236Z,17.80
2023-02-17T19:22:37.631Z,23.00
2023-02-17T19:27:42.147Z,19.10
2023-02-17T19:32:44.138Z,18.60
2023-02-17T19:37:45.684Z,23.00
2023-02-17T19:42:47.593Z,19.00
2023-02-17T19:47:49.074Z,16.00
2023-02-17T19:52:50.737Z,15.10
2023-02-17T19:57:53.198Z,18.40
2023-02-17T20:02:54.686Z,18.50
2023-02-17T20:07:57.267Z,15.70
2023-02-17T20:12:58.809Z,17.30
2023-02-17T20:18:00.376Z,19.80
2023-02-17T20:23:01.966Z,17.10
2023-02-17T20:28:03.586Z,16.70
2023-02-17T20:33:05.213Z,17.80
2023-02-17T20:38:08.004Z,19.60
2023-02-17T20:43:12.362Z,17.40
2023-02-17T20:48:13.973Z,15.40
2023-02-17T20:53:15.511Z,19.20
2023-02-17T20:58:17.370Z,17.70
2023-02-17T21:03:19.040Z,15.40
2023-02-17T21:08:20.616Z,12.20
2023-02-17T21:13:23.000Z,16.00
2023-02-17T21:18:24.568Z,16.50
2023-02-17T21:23:26.091Z,12.90
2023-02-17T21:28:27.654Z,14.20
2023-02-17T21:33:29.352Z,16.00
2023-02-17T21:38:30.913Z,16.30
2023-02-17T21:43:51.665Z,12.80
2023-02-17T21:48:53.677Z,15.10
2023-02-17T21:53:55.752Z,16.30
2023-02-17T21:58:57.320Z,16.10
2023-02-17T22:03:58.906Z,11.00
2023-02-17T22:09:01.017Z,6.20
2023-02-17T22:14:05.590Z,5.50
2023-02-17T22:19:08.821Z,4.40
2023-02-17T22:24:10.616Z,4.90
2023-02-17T22:29:12.144Z,3.00
2023-02-17T22:34:14.701Z,3.10
2023-02-17T22:39:16.373Z,3.20
2023-02-17T22:44:18.348Z,4.40
2023-02-17T22:49:19.853Z,3.50
2023-02-17T22:54:21.469Z,4.70
2023-02-17T22:59:23.098Z,3.80
2023-02-17T23:04:24.863Z,4.20
2023-02-17T23:09:26.414Z,5.50
2023-02-17T23:14:34.837Z,2.10
2023-02-17T23:19:37.299Z,4.10
2023-02-17T23:24:38.812Z,3.30
2023-02-17T23:29:41.336Z,2.60
2023-02-17T23:34:42.844Z,5.70
2023-02-17T23:39:44.427Z,4.10
2023-02-17T23:44:45.902Z,6.90
2023-02-17T23:49:47.423Z,3.80
2023-02-17T23:54:48.918Z,5.10
2023-02-17T23:59:50.446Z,3.80
